createdAt,value
2023-05-04T00:00:00.407Z,12.59
2023-05-04T00:05:04.546Z,12.64
2023-05-04T00:10:07.979Z,12.55
2023-05-04T00:15:10.530Z,12.61
2023-05-04T00:20:13.676Z,12.57
2023-05-04T00:25:15.985Z,12.69
2023-05-04T00:30:18.238Z,12.67
2023-05-04T00:35:20.434Z,12.63
2023-05-04T00:40:22.768Z,12.64
2023-05-04T00:45:24.964Z,12.51
2023-05-04T00:50:28.551Z,12.42
2023-05-04T00:55:31.683Z,12.48
2023-05-04T01:00:33.825Z,12.56
2023-05-04T01:05:40.932Z,12.67
2023-05-04T01:10:43.023Z,12.78
2023-05-04T01:15:46.293Z,12.88
2023-05-04T01:20:48.518Z,12.92
2023-05-04T01:26:07.064Z,13.03
2023-05-04T01:31:14.436Z,13.11
2023-05-04T01:36:16.932Z,13.09
2023-05-04T01:41:19.046Z,12.97
2023-05-04T01:46:21.802Z,12.98
2023-05-04T01:51:23.986Z,12.88
2023-05-04T01:56:26.464Z,12.94
2023-05-04T02:01:28.688Z,12.95
2023-05-04T02:06:30.893Z,13.02
2023-05-04T02:11:33.053Z,13.09
2023-05-04T02:16:35.367Z,13.16
2023-05-04T02:21:37.642Z,13.18
2023-05-04T02:26:39.869Z,13.13
2023-05-04T02:31:42.040Z,12.92
2023-05-04T02:36:44.228Z,12.50
2023-05-04T02:41:46.989Z,12.23
2023-05-04T02:46:49.142Z,12.04
2023-05-04T02:51:51.523Z,11.97
2023-05-04T02:56:53.652Z,11.79
2023-05-04T03:01:56.006Z,11.66
2023-05-04T03:06:58.208Z,11.61
2023-05-04T03:12:00.382Z,11.55
2023-05-04T03:17:02.594Z,11.59
2023-05-04T03:22:04.753Z,11.55
2023-05-04T03:27:07.210Z,11.55
2023-05-04T03:32:09.489Z,11.72
2023-05-04T03:37:12.359Z,11.85
2023-05-04T03:42:14.480Z,11.96
2023-05-04T03:47:16.651Z,12.32
2023-05-04T03:52:18.765Z,12.59
2023-05-04T03:57:22.392Z,12.82
2023-05-04T04:02:24.673Z,12.88
2023-05-04T04:07:27.053Z,12.75
2023-05-04T04:12:30.479Z,12.54
2023-05-04T04:17:32.742Z,12.46
2023-05-04T04:22:36.077Z,12.40
2023-05-04T04:27:38.303Z,12.33
2023-05-04T04:32:40.616Z,12.34
2023-05-04T04:37:42.767Z,12.40
2023-05-04T04:42:44.876Z,12.41
2023-05-04T04:47:47.312Z,12.48
2023-05-04T04:52:49.502Z,12.55
2023-05-04T04:57:52.969Z,12.70
2023-05-04T05:02:55.196Z,12.97
2023-05-04T05:07:57.400Z,13.07
2023-05-04T05:12:59.540Z,13.09
2023-05-04T05:18:01.678Z,13.00
2023-05-04T05:23:03.875Z,13.00
2023-05-04T05:28:06.091Z,13.03
2023-05-04T05:33:08.325Z,13.15
2023-05-04T05:38:10.754Z,13.27
2023-05-04T05:43:12.903Z,13.46
2023-05-04T05:48:15.094Z,13.62
2023-05-04T05:53:17.319Z,13.85
2023-05-04T05:58:19.468Z,13.98
2023-05-04T06:03:21.794Z,14.02
2023-05-04T06:08:24.155Z,14.14
2023-05-04T06:13:26.449Z,14.16
2023-05-04T06:18:28.668Z,14.22
2023-05-04T06:23:31.748Z,14.29
2023-05-04T06:28:35.121Z,14.36
2023-05-04T06:33:38.195Z,14.66
2023-05-04T06:38:40.955Z,15.09
2023-05-04T06:43:43.779Z,15.47
2023-05-04T06:48:45.916Z,15.34
2023-05-04T06:53:47.981Z,15.48
2023-05-04T06:58:50.727Z,15.61
2023-05-04T07:03:53.183Z,15.97
2023-05-04T07:08:55.322Z,16.34
2023-05-04T07:13:59.036Z,16.61
2023-05-04T07:19:01.196Z,16.53
2023-05-04T07:24:04.462Z,16.50
2023-05-04T07:29:06.706Z,16.59
2023-05-04T07:34:08.920Z,17.49
2023-05-04T07:39:11.300Z,17.15
2023-05-04T07:44:13.447Z,17.97
2023-05-04T07:49:15.697Z,19.72
2023-05-04T07:54:17.895Z,20.79
2023-05-04T07:59:20.426Z,21.86
2023-05-04T08:04:22.588Z,22.64
2023-05-04T08:09:24.754Z,24.02
2023-05-04T08:14:27.091Z,24.99
2023-05-04T08:19:29.292Z,24.21
2023-05-04T08:24:31.500Z,25.07
2023-05-04T08:29:33.850Z,25.65
2023-05-04T08:34:36.863Z,23.50
2023-05-04T08:39:41.839Z,22.86
2023-05-04T08:44:44.307Z,23.24
2023-05-04T08:49:46.583Z,23.19
2023-05-04T08:54:52.011Z,22.84
2023-05-04T08:59:55.864Z,23.13
2023-05-04T09:04:58.683Z,24.02
2023-05-04T09:10:01.479Z,27.27
2023-05-04T09:15:17.612Z,27.58
2023-05-04T09:20:19.968Z,28.29
2023-05-04T09:25:22.255Z,26.85
2023-05-04T09:30:24.569Z,25.14
2023-05-04T09:35:33.714Z,25.91
2023-05-04T09:40:40.224Z,24.98
2023-05-04T09:45:47.281Z,26.60
2023-05-04T09:50:52.289Z,25.46
2023-05-04T09:56:05.779Z,25.60
2023-05-04T10:01:09.733Z,25.60
2023-05-04T10:06:12.455Z,25.57
2023-05-04T10:11:16.162Z,26.46
2023-05-04T10:16:43.907Z,26.03
2023-05-04T10:22:14.528Z,27.96
2023-05-04T10:27:54.002Z,29.17
2023-05-04T10:32:57.448Z,29.71
2023-05-04T10:37:59.994Z,33.22
2023-05-04T10:43:02.276Z,33.13
2023-05-04T10:48:08.513Z,33.58
2023-05-04T10:53:12.193Z,33.03
2023-05-04T10:58:19.134Z,33.98
2023-05-04T11:03:25.153Z,33.21
2023-05-04T11:08:27.753Z,33.32
2023-05-04T11:13:33.876Z,34.64
2023-05-04T11:18:37.460Z,33.04
2023-05-04T11:23:39.752Z,33.80
2023-05-04T11:28:42.553Z,36.72
2023-05-04T11:33:54.998Z,36.81
2023-05-04T11:38:57.725Z,36.28
2023-05-04T11:44:01.777Z,36.70
2023-05-04T11:49:05.251Z,37.35
2023-05-04T11:54:07.685Z,30.86
2023-05-04T11:59:10.918Z,30.03
2023-05-04T12:04:13.241Z,30.93
2023-05-04T12:09:16.602Z,30.25
2023-05-04T12:14:19.402Z,28.67
2023-05-04T12:19:21.653Z,31.69
2023-05-04T12:24:24.946Z,31.31
2023-05-04T12:29:27.234Z,28.49
2023-05-04T12:34:29.418Z,29.39
2023-05-04T12:39:32.902Z,32.14
2023-05-04T12:44:35.098Z,33.07
2023-05-04T12:49:37.310Z,35.68
2023-05-04T12:54:39.430Z,31.72
2023-05-04T12:59:41.560Z,31.89
2023-05-04T13:04:43.861Z,27.27
2023-05-04T13:09:45.973Z,31.14
2023-05-04T13:14:48.144Z,30.68
2023-05-04T13:19:50.379Z,33.25
2023-05-04T13:24:52.524Z,28.83
2023-05-04T13:29:54.808Z,26.73
2023-05-04T13:34:57.208Z,25.45
2023-05-04T13:40:01.462Z,24.80
2023-05-04T13:45:03.979Z,24.74
2023-05-04T13:50:07.337Z,23.70
2023-05-04T13:55:09.676Z,23.33
2023-05-04T14:00:12.460Z,23.01
2023-05-04T14:05:14.795Z,25.25
2023-05-04T14:10:17.734Z,24.44
2023-05-04T14:15:22.729Z,24.09
2023-05-04T14:20:24.974Z,23.32
2023-05-04T14:25:27.225Z,24.04
2023-05-04T14:30:29.474Z,23.95
2023-05-04T14:35:31.596Z,23.73
2023-05-04T14:40:33.856Z,22.75
2023-05-04T14:45:36.090Z,22.80
2023-05-04T14:50:38.527Z,23.08
2023-05-04T14:55:42.195Z,23.00
2023-05-04T15:00:45.269Z,22.81
2023-05-04T15:05:47.426Z,22.41
2023-05-04T15:10:49.568Z,22.31
2023-05-04T15:15:52.368Z,22.59
2023-05-04T15:20:54.552Z,22.70
2023-05-04T15:25:56.753Z,22.80
2023-05-04T15:31:00.543Z,24.13
2023-05-04T15:36:07.977Z,26.64
2023-05-04T15:41:10.253Z,29.16
2023-05-04T15:46:12.442Z,27.29
2023-05-04T15:51:15.001Z,26.41
2023-05-04T15:56:17.394Z,25.02
2023-05-04T16:01:19.548Z,24.59
2023-05-04T16:06:23.617Z,24.36
2023-05-04T16:11:26.167Z,23.85
2023-05-04T16:16:28.409Z,23.75
2023-05-04T16:21:30.567Z,23.31
2023-05-04T16:26:32.751Z,22.86
2023-05-04T16:31:35.118Z,21.94
2023-05-04T16:36:37.338Z,21.64
2023-05-04T16:41:39.477Z,21.78
2023-05-04T16:46:42.036Z,21.11
2023-05-04T16:51:44.314Z,20.55
2023-05-04T16:56:47.090Z,20.47
2023-05-04T17:01:51.220Z,20.25
2023-05-04T17:06:53.375Z,19.87
2023-05-04T17:11:55.724Z,19.74
2023-05-04T17:16:57.979Z,19.11
2023-05-04T17:22:10.485Z,18.85
2023-05-04T17:27:13.070Z,18.47
2023-05-04T17:32:15.328Z,18.26
2023-05-04T17:37:17.584Z,17.92
2023-05-04T17:42:19.719Z,17.81
2023-05-04T17:47:21.913Z,17.53
2023-05-04T17:52:24.107Z,17.37
2023-05-04T17:57:26.316Z,17.33
2023-05-04T18:02:30.760Z,16.92
2023-05-04T18:07:33.060Z,16.88
2023-05-04T18:12:38.034Z,16.59
2023-05-04T18:17:40.569Z,16.37
2023-05-04T18:22:42.780Z,16.34
2023-05-04T18:27:45.000Z,16.27
2023-05-04T18:32:47.274Z,16.17
2023-05-04T18:37:49.692Z,16.12
2023-05-04T18:42:51.847Z,16.15
2023-05-04T18:47:54.026Z,16.04
2023-05-04T18:52:56.172Z,15.96
2023-05-04T18:57:58.375Z,15.89
2023-05-04T19:03:00.601Z,15.69
2023-05-04T19:08:02.838Z,15.50
2023-05-04T19:13:04.970Z,15.47
2023-05-04T19:18:07.312Z,15.47
2023-05-04T19:23:12.410Z,15.32
2023-05-04T19:28:14.582Z,15.33
2023-05-04T19:33:16.865Z,15.24
2023-05-04T19:38:19.033Z,15.36
2023-05-04T19:43:21.201Z,15.23
2023-05-04T19:48:23.636Z,14.99
2023-05-04T19:53:25.972Z,14.98
2023-05-04T19:58:30.267Z,14.87
2023-05-04T20:03:32.433Z,14.79
2023-05-04T20:08:34.642Z,14.61
2023-05-04T20:13:38.215Z,14.51
2023-05-04T20:18:40.727Z,14.37
2023-05-04T20:23:45.751Z,14.21
2023-05-04T20:28:47.882Z,14.09
2023-05-04T20:33:50.003Z,14.11
2023-05-04T20:38:52.120Z,14.22
2023-05-04T20:43:54.318Z,14.63
2023-05-04T20:48:56.992Z,15.08
2023-05-04T20:53:59.260Z,15.46
2023-05-04T20:59:01.392Z,15.76
2023-05-04T21:04:03.784Z,15.92
2023-05-04T21:09:06.486Z,16.02
2023-05-04T21:14:08.714Z,16.10
2023-05-04T21:19:10.982Z,16.22
2023-05-04T21:24:13.933Z,16.27
2023-05-04T21:29:16.198Z,16.26
2023-05-04T21:34:19.186Z,16.28
2023-05-04T21:39:22.061Z,16.32
2023-05-04T21:44:24.237Z,16.30
2023-05-04T21:49:26.367Z,16.23
2023-05-04T21:54:28.558Z,16.08
2023-05-04T21:59:30.683Z,15.94
2023-05-04T22:04:37.955Z,15.97
2023-05-04T22:09:40.094Z,16.03
2023-05-04T22:14:42.667Z,15.83
2023-05-04T22:19:50.148Z,15.81
2023-05-04T22:24:52.317Z,15.87
2023-05-04T22:29:54.460Z,15.79
2023-05-04T22:34:57.419Z,15.68
2023-05-04T22:40:00.397Z,15.68
2023-05-04T22:45:02.693Z,15.42
2023-05-04T22:50:05.455Z,15.09
2023-05-04T22:55:08.703Z,14.77
2023-05-04T23:00:12.089Z,14.50
2023-05-04T23:05:14.669Z,14.18
2023-05-04T23:10:16.992Z,14.01
2023-05-04T23:15:19.255Z,13.68
2023-05-04T23:20:21.606Z,13.48
2023-05-04T23:25:23.727Z,13.31
2023-05-04T23:30:25.883Z,12.99
2023-05-04T23:35:28.244Z,12.96
2023-05-04T23:40:30.452Z,12.71
2023-05-04T23:45:32.628Z,12.63
2023-05-04T23:50:34.766Z,12.77
2023-05-04T23:55:36.916Z,12.44
